createdAt,value
2018-02-07T00:03:44.162Z,54.90
2018-02-07T00:08:47.358Z,58.10
2018-02-07T00:13:50.772Z,52.93
2018-02-07T00:18:54.509Z,52.20
2018-02-07T00:23:57.938Z,53.67
2018-02-07T00:29:01.509Z,53.50
2018-02-07T00:34:04.136Z,53.57
2018-02-07T00:39:07.584Z,55.73
2018-02-07T00:44:10.277Z,55.27
2018-02-07T00:49:14.091Z,48.67
2018-02-07T00:54:17.479Z,57.50
2018-02-07T00:59:20.510Z,64.33
2018-02-07T01:04:23.973Z,59.30
2018-02-07T01:09:27.084Z,59.33
2018-02-07T01:14:29.794Z,55.07
2018-02-07T01:19:32.631Z,55.57
2018-02-07T01:24:35.248Z,51.80
2018-02-07T01:29:38.555Z,63.13
2018-02-07T01:34:42.024Z,60.77
2018-02-07T01:39:45.540Z,61.53
2018-02-07T01:44:48.144Z,62.90
2018-02-07T01:49:51.943Z,62.20
2018-02-07T01:54:54.588Z,65.80
2018-02-07T01:59:57.978Z,64.47
2018-02-07T02:05:00.625Z,57.23
2018-02-07T02:10:03.410Z,58.17
2018-02-07T02:15:06.045Z,60.37
2018-02-07T02:20:09.792Z,58.67
2018-02-07T02:25:12.448Z,61.20
2018-02-07T02:30:15.967Z,69.30
2018-02-07T02:35:19.379Z,66.13
2018-02-07T02:40:22.012Z,73.93
2018-02-07T02:45:24.630Z,60.17
2018-02-07T02:50:27.474Z,73.70
2018-02-07T02:55:30.110Z,69.73
2018-02-07T03:00:33.616Z,70.07
2018-02-07T03:05:37.017Z,66.83
2018-02-07T03:10:39.983Z,67.70
2018-02-07T03:15:42.628Z,72.10
2018-02-07T03:20:45.399Z,66.90
2018-02-07T03:25:48.046Z,70.47
2018-02-07T03:30:51.884Z,66.80
2018-02-07T03:35:54.479Z,69.87
2018-02-07T03:40:58.623Z,75.17
2018-02-07T03:46:01.257Z,74.47
2018-02-07T03:51:04.527Z,76.03
2018-02-07T03:56:07.159Z,74.67
2018-02-07T04:01:09.923Z,80.20
2018-02-07T04:06:13.332Z,82.67
2018-02-07T04:11:17.577Z,80.40
2018-02-07T04:16:20.935Z,77.63
2018-02-07T04:21:24.502Z,84.00
2018-02-07T04:26:27.859Z,89.30
2018-02-07T04:31:30.733Z,94.53
2018-02-07T04:36:34.126Z,96.87
2018-02-07T04:41:37.065Z,84.63
2018-02-07T04:46:39.696Z,80.43
2018-02-07T04:51:42.468Z,93.67
2018-02-07T04:56:45.060Z,89.47
2018-02-07T05:01:47.917Z,88.27
2018-02-07T05:06:50.521Z,90.50
2018-02-07T05:11:53.294Z,79.93
2018-02-07T05:16:55.917Z,96.57
2018-02-07T05:21:59.478Z,92.33
2018-02-07T05:27:02.089Z,91.90
2018-02-07T05:32:04.789Z,97.33
2018-02-07T05:37:07.457Z,91.97
2018-02-07T05:42:10.445Z,95.07
2018-02-07T05:47:13.089Z,99.43
2018-02-07T05:52:15.901Z,92.10
2018-02-07T05:57:19.384Z,91.17
2018-02-07T06:02:22.823Z,85.33
2018-02-07T06:07:26.280Z,92.73
2018-02-07T06:12:29.378Z,94.13
2018-02-07T06:17:32.046Z,117.73
2018-02-07T06:22:35.482Z,103.17
2018-02-07T06:27:38.079Z,97.30
2018-02-07T06:32:41.197Z,111.20
2018-02-07T06:37:43.820Z,95.93
2018-02-07T06:42:46.992Z,98.37
2018-02-07T06:47:49.683Z,103.70
2018-02-07T06:52:53.412Z,103.13
2018-02-07T06:57:56.051Z,108.97
2018-02-07T07:02:59.340Z,101.30
2018-02-07T07:08:01.983Z,107.63
2018-02-07T07:13:04.864Z,109.47
2018-02-07T07:18:07.529Z,112.20
2018-02-07T07:23:11.118Z,96.87
2018-02-07T07:28:13.733Z,106.57
2018-02-07T07:33:17.891Z,92.83
2018-02-07T07:38:20.577Z,109.77
2018-02-07T07:43:24.440Z,98.13
2018-02-07T07:48:27.057Z,100.00
2018-02-07T07:53:30.642Z,125.40
2018-02-07T07:58:33.252Z,97.43
2018-02-07T08:03:35.918Z,92.77
2018-02-07T08:08:39.309Z,94.90
2018-02-07T08:13:41.944Z,91.93
2018-02-07T08:18:46.464Z,93.93
2018-02-07T08:23:50.709Z,93.13
2018-02-07T08:28:54.111Z,91.17
2018-02-07T08:33:57.756Z,93.43
2018-02-07T08:39:01.155Z,93.87
2018-02-07T08:44:04.139Z,87.57
2018-02-07T08:49:06.789Z,89.23
2018-02-07T08:54:09.597Z,85.10
2018-02-07T08:59:12.227Z,91.63
2018-02-07T09:04:15.804Z,105.97
2018-02-07T09:09:18.438Z,90.57
2018-02-07T09:14:21.083Z,92.27
2018-02-07T09:19:23.727Z,85.30
2018-02-07T09:24:26.501Z,89.60
2018-02-07T09:29:29.919Z,92.20
2018-02-07T09:34:33.949Z,74.17
2018-02-07T09:39:37.349Z,87.97
2018-02-07T09:44:40.145Z,90.43
2018-02-07T09:49:43.550Z,90.60
2018-02-07T09:54:46.644Z,97.57
2018-02-07T09:59:49.290Z,98.73
2018-02-07T10:04:52.994Z,88.70
2018-02-07T10:09:55.619Z,84.90
2018-02-07T10:14:58.390Z,90.23
2018-02-07T10:20:02.535Z,70.77
2018-02-07T10:25:06.497Z,83.30
2018-02-07T10:30:09.106Z,87.00
2018-02-07T10:35:11.963Z,84.63
2018-02-07T10:40:14.586Z,74.17
2018-02-07T10:45:17.476Z,85.43
2018-02-07T10:50:20.895Z,73.13
2018-02-07T10:55:24.557Z,73.17
2018-02-07T11:00:27.167Z,77.77
2018-02-07T11:05:30.030Z,73.70
2018-02-07T11:10:33.418Z,85.40
2018-02-07T11:15:36.477Z,81.80
2018-02-07T11:20:39.111Z,77.17
2018-02-07T11:25:41.830Z,93.70
2018-02-07T11:30:44.430Z,88.83
2018-02-07T11:35:47.095Z,91.17
2018-02-07T11:40:49.720Z,90.57
2018-02-07T11:45:53.197Z,84.37
2018-02-07T11:50:55.831Z,87.50
2018-02-07T11:55:58.715Z,92.80
2018-02-07T12:01:01.355Z,91.33
2018-02-07T12:06:05.278Z,87.37
2018-02-07T12:11:07.878Z,79.17
2018-02-07T12:16:11.234Z,70.67
2018-02-07T12:21:13.860Z,56.33
2018-02-07T12:26:16.514Z,58.30
2018-02-07T12:31:19.884Z,53.17
2018-02-07T12:36:22.739Z,45.10
2018-02-07T12:41:25.346Z,49.37
2018-02-07T12:46:28.153Z,50.70
2018-02-07T12:51:30.835Z,55.43
2018-02-07T12:56:34.499Z,63.90
2018-02-07T13:01:37.134Z,66.77
2018-02-07T13:06:39.787Z,60.53
2018-02-07T13:11:42.427Z,60.13
2018-02-07T13:16:45.495Z,57.07
2018-02-07T13:21:48.104Z,62.03
2018-02-07T13:26:50.874Z,58.93
2018-02-07T13:31:53.501Z,63.30
2018-02-07T13:36:56.877Z,68.00
2018-02-07T13:42:00.264Z,65.27
2018-02-07T13:47:03.348Z,61.53
2018-02-07T13:52:05.980Z,66.47
2018-02-07T13:57:09.421Z,65.50
2018-02-07T14:02:12.811Z,69.07
2018-02-07T14:07:15.651Z,62.57
2018-02-07T14:12:18.261Z,60.93
2018-02-07T14:17:21.014Z,67.20
2018-02-07T14:22:23.638Z,65.30
2018-02-07T14:27:27.362Z,69.87
2018-02-07T14:32:30.755Z,70.27
2018-02-07T14:37:33.947Z,77.53
2018-02-07T14:42:38.090Z,71.00
2018-02-07T14:47:40.900Z,72.10
2018-02-07T14:52:43.526Z,73.43
2018-02-07T14:57:47.182Z,80.67
2018-02-07T15:02:49.862Z,71.90
2018-02-07T15:07:53.019Z,75.83
2018-02-07T15:12:55.653Z,79.20
2018-02-07T15:17:59.086Z,83.10
2018-02-07T15:23:01.707Z,85.63
2018-02-07T15:28:05.294Z,86.23
2018-02-07T15:33:07.923Z,88.13
2018-02-07T15:38:11.310Z,92.10
2018-02-07T15:43:14.745Z,89.17
2018-02-07T15:48:18.362Z,93.13
2018-02-07T15:53:20.998Z,101.13
2018-02-07T15:58:24.194Z,99.33
2018-02-07T16:03:26.879Z,100.70
2018-02-07T16:08:29.883Z,91.87
2018-02-07T16:13:33.361Z,90.77
2018-02-07T16:18:36.038Z,111.47
2018-02-07T16:23:38.731Z,104.57
2018-02-07T16:28:42.324Z,151.50
2018-02-07T16:33:44.956Z,115.23
2018-02-07T16:38:48.423Z,113.17
2018-02-07T16:43:51.837Z,106.50
2018-02-07T16:48:56.298Z,128.80
2018-02-07T16:53:58.915Z,107.57
2018-02-07T16:59:01.771Z,97.90
2018-02-07T17:04:05.271Z,90.80
2018-02-07T17:09:07.960Z,107.77
2018-02-07T17:14:12.259Z,108.03
2018-02-07T17:19:16.171Z,103.57
2018-02-07T17:24:18.842Z,102.80
2018-02-07T17:29:23.262Z,108.93
2018-02-07T17:34:26.708Z,99.90
2018-02-07T17:39:31.170Z,107.80
2018-02-07T17:44:33.891Z,101.87
2018-02-07T17:49:37.185Z,101.10
2018-02-07T17:54:40.660Z,108.93
2018-02-07T17:59:43.718Z,106.83
2018-02-07T18:04:47.438Z,109.63
2018-02-07T18:09:51.434Z,106.17
2018-02-07T18:14:54.235Z,104.93
2018-02-07T18:19:57.119Z,98.57
2018-02-07T18:24:59.884Z,104.90
2018-02-07T18:30:02.912Z,108.97
2018-02-07T18:35:05.688Z,107.20
2018-02-07T18:40:08.732Z,108.17
2018-02-07T18:45:11.360Z,105.80
2018-02-07T18:50:14.916Z,111.47
2018-02-07T18:55:17.671Z,108.87
2018-02-07T19:00:20.625Z,105.60
2018-02-07T19:05:23.298Z,113.10
2018-02-07T19:10:27.680Z,111.83
2018-02-07T19:15:30.377Z,116.17
2018-02-07T19:20:33.261Z,105.57
2018-02-07T19:25:36.622Z,120.83
2018-02-07T19:30:39.514Z,113.37
2018-02-07T19:35:42.176Z,112.53
2018-02-07T19:40:45.801Z,113.33
2018-02-07T19:45:49.578Z,121.97
2018-02-07T19:50:54.292Z,109.87
2018-02-07T19:55:57.298Z,109.57
2018-02-07T20:01:01.559Z,121.00
2018-02-07T20:06:04.388Z,122.53
2018-02-07T20:11:07.460Z,109.57
2018-02-07T20:16:10.118Z,113.57
2018-02-07T20:21:12.851Z,120.80
2018-02-07T20:26:15.461Z,121.07
2018-02-07T20:31:18.753Z,121.60
2018-02-07T20:36:21.372Z,116.47
2018-02-07T20:41:24.765Z,134.53
2018-02-07T20:46:28.283Z,124.20
2018-02-07T20:51:32.838Z,125.53
2018-02-07T20:56:35.560Z,126.30
2018-02-07T21:01:38.434Z,125.07
2018-02-07T21:06:42.263Z,124.67
2018-02-07T21:11:45.660Z,120.33
2018-02-07T21:16:48.304Z,127.40
2018-02-07T21:21:51.383Z,119.33
2018-02-07T21:26:54.196Z,119.93
2018-02-07T21:31:57.227Z,115.97
2018-02-07T21:37:00.000Z,125.80
2018-02-07T21:42:03.263Z,119.33
2018-02-07T21:47:06.015Z,125.77
2018-02-07T21:52:09.096Z,131.73
2018-02-07T21:57:15.645Z,132.37
2018-02-07T22:02:19.236Z,129.87
2018-02-07T22:07:22.769Z,129.00
2018-02-07T22:12:25.667Z,131.53
2018-02-07T22:17:28.415Z,136.13
2018-02-07T22:22:31.872Z,135.93
2018-02-07T22:27:35.309Z,138.60
2018-02-07T22:32:38.308Z,140.17
2018-02-07T22:37:40.990Z,141.43
2018-02-07T22:42:45.162Z,133.17
2018-02-07T22:47:47.886Z,134.03
2018-02-07T22:52:50.726Z,125.87
2018-02-07T22:57:54.268Z,128.77
2018-02-07T23:02:57.247Z,121.00
2018-02-07T23:07:59.846Z,131.70
2018-02-07T23:13:03.201Z,127.20
2018-02-07T23:18:05.798Z,132.07
2018-02-07T23:23:08.491Z,130.87
2018-02-07T23:28:11.101Z,140.80
2018-02-07T23:33:14.766Z,131.70
2018-02-07T23:38:17.383Z,132.73
2018-02-07T23:43:21.782Z,127.03
2018-02-07T23:48:24.429Z,131.70
2018-02-07T23:53:28.098Z,126.30
2018-02-07T23:58:30.706Z,130.70
